Time;durP1;ratioP1;P1;durP2;ratioP2;P2;SDS_P1;SDS_P2;PMS_P1;PMS_P2;Temp;Humidity;BMP_temperature;BMP_pressure;BME280_temperature;BME280_humidity;BME280_pressure;Samples;Min_cycle;Max_cycle;Signal;HPM_P1;HPM_P2
2022/06/19 00:00:08;;;;;;;10.93;1.63;;;16.60;85.10;;;;;;5067065;28;20029;-77
2022/06/19 00:02:40;;;;;;;12.65;1.30;;;16.50;85.20;;;;;;5050285;28;20036;-77
2022/06/19 00:05:08;;;;;;;13.40;2.03;;;16.50;85.30;;;;;;5063230;28;20286;-77
2022/06/19 00:07:34;;;;;;;8.75;1.30;;;16.50;85.20;;;;;;5054400;28;20043;-77
2022/06/19 00:10:02;;;;;;;10.88;1.45;;;16.40;85.10;;;;;;5078785;28;20047;-77
2022/06/19 00:12:29;;;;;;;11.98;1.25;;;16.40;85.20;;;;;;5042739;28;20372;-78
2022/06/19 00:14:55;;;;;;;12.00;1.85;;;16.40;85.10;;;;;;5020225;28;20056;-77
2022/06/19 00:17:21;;;;;;;7.05;1.35;;;16.40;85.10;;;;;;5048034;28;20477;-77
2022/06/19 00:19:48;;;;;;;9.40;1.20;;;16.30;85.00;;;;;;5062793;28;20024;-78
2022/06/19 00:22:14;;;;;;;8.60;1.25;;;16.40;85.10;;;;;;5063859;28;20049;-78
2022/06/19 00:24:41;;;;;;;8.48;0.90;;;16.30;85.00;;;;;;5033840;28;20467;-77
2022/06/19 00:27:07;;;;;;;12.20;1.23;;;16.30;85.10;;;;;;5083882;28;20041;-77
2022/06/19 00:29:34;;;;;;;9.40;1.85;;;16.40;85.10;;;;;;5065137;28;20040;-76
2022/06/19 00:32:04;;;;;;;15.13;3.75;;;16.30;85.30;;;;;;5071402;28;20383;-76
2022/06/19 00:34:32;;;;;;;13.68;2.95;;;16.30;85.50;;;;;;5068716;28;20036;-75
2022/06/19 00:37:01;;;;;;;9.05;1.40;;;16.20;85.60;;;;;;5059604;28;20487;-78
2022/06/19 00:39:28;;;;;;;10.90;2.22;;;16.20;85.70;;;;;;5049562;28;20690;-78
2022/06/19 00:41:55;;;;;;;8.40;1.77;;;16.20;85.80;;;;;;5049656;28;20032;-78
2022/06/19 00:44:21;;;;;;;12.82;5.03;;;16.20;85.90;;;;;;5059753;28;20025;-77
2022/06/19 00:47:13;;;;;;;12.23;2.35;;;16.20;85.80;;;;;;5053117;28;20604;-77
2022/06/19 00:49:51;;;;;;;8.65;1.88;;;16.20;86.00;;;;;;5050141;28;20041;-78
2022/06/19 00:52:22;;;;;;;9.95;2.50;;;16.20;86.00;;;;;;5031286;28;20044;-79
2022/06/19 00:55:08;;;;;;;10.18;2.53;;;16.20;86.10;;;;;;5083560;28;20048;-79
2022/06/19 00:57:42;;;;;;;10.80;2.00;;;16.20;86.10;;;;;;5048498;28;20040;-76
2022/06/19 01:00:14;;;;;;;14.27;2.65;;;16.20;86.30;;;;;;5062201;28;20029;-78
2022/06/19 01:02:47;;;;;;;10.63;1.65;;;16.10;86.50;;;;;;5061147;28;20051;-78
2022/06/19 01:05:16;;;;;;;10.68;1.27;;;16.10;86.70;;;;;;5034474;28;20029;-77
2022/06/19 01:07:44;;;;;;;10.18;1.20;;;16.00;86.90;;;;;;5032190;28;20040;-78
2022/06/19 01:10:15;;;;;;;9.88;1.35;;;16.00;86.90;;;;;;5062841;28;20025;-77
2022/06/19 01:12:45;;;;;;;9.75;1.00;;;15.90;86.90;;;;;;5048875;28;20502;-77
2022/06/19 01:15:16;;;;;;;8.73;1.48;;;15.90;87.00;;;;;;5048695;28;20028;-78
2022/06/19 01:17:46;;;;;;;13.10;1.33;;;15.90;87.00;;;;;;5078730;28;20472;-78
2022/06/19 01:20:14;;;;;;;10.73;1.10;;;15.90;86.90;;;;;;5068626;28;20039;-77
2022/06/19 01:23:13;;;;;;;10.60;1.40;;;15.90;86.70;;;;;;5066483;28;20491;-79
2022/06/19 01:25:41;;;;;;;14.10;1.27;;;15.90;86.60;;;;;;5064770;28;20040;-78
2022/06/19 01:31:09;;;;;;;11.00;1.33;;;15.90;85.90;;;;;;5047795;28;21558;-79
2022/06/19 01:33:51;;;;;;;11.07;1.70;;;15.90;85.60;;;;;;5048505;28;20052;-78
2022/06/19 01:36:21;;;;;;;11.90;1.85;;;15.90;85.30;;;;;;5062359;28;20380;-78
2022/06/19 01:38:50;;;;;;;9.48;0.95;;;15.90;84.90;;;;;;5065522;28;20041;-78
2022/06/19 01:41:26;;;;;;;9.23;1.27;;;16.00;84.70;;;;;;5071680;28;20032;-79
2022/06/19 01:43:55;;;;;;;9.75;1.13;;;16.00;84.40;;;;;;5059418;28;20036;-78
2022/06/19 01:46:27;;;;;;;11.05;1.10;;;16.00;83.70;;;;;;5064220;28;20055;-78
2022/06/19 01:48:56;;;;;;;9.55;1.63;;;15.90;83.40;;;;;;5078725;28;20040;-77
2022/06/19 01:51:22;;;;;;;7.07;0.90;;;15.90;83.10;;;;;;5047931;28;20353;-78
2022/06/19 01:54:04;;;;;;;8.95;1.40;;;15.90;82.60;;;;;;5027104;28;20091;-77
2022/06/19 01:56:31;;;;;;;8.68;1.73;;;15.90;81.90;;;;;;5063498;28;20029;-78
2022/06/19 01:59:05;;;;;;;5.43;0.98;;;15.80;81.60;;;;;;5075338;28;20069;-80
2022/06/19 02:01:35;;;;;;;8.18;0.70;;;15.80;81.50;;;;;;5059211;28;20037;-79
2022/06/19 02:04:04;;;;;;;8.48;0.85;;;15.80;81.40;;;;;;5080005;28;20032;-80
2022/06/19 02:06:42;;;;;;;8.95;1.02;;;15.80;80.70;;;;;;5054684;28;20048;-78
2022/06/19 02:09:09;;;;;;;7.20;1.10;;;15.70;80.40;;;;;;5062429;28;20043;-78
2022/06/19 02:11:36;;;;;;;8.57;0.85;;;15.70;79.80;;;;;;5062805;28;20028;-78
2022/06/19 02:14:07;;;;;;;5.40;0.80;;;15.70;79.40;;;;;;5079409;28;20039;-78
2022/06/19 02:16:37;;;;;;;5.75;1.08;;;15.60;79.30;;;;;;5062238;28;20028;-78
2022/06/19 02:19:04;;;;;;;9.65;1.10;;;15.70;79.60;;;;;;5026074;28;20051;-78
2022/06/19 02:21:46;;;;;;;5.65;0.80;;;15.70;78.90;;;;;;5058148;28;20037;-79
2022/06/19 02:24:16;;;;;;;5.05;0.70;;;15.70;78.30;;;;;;5085382;28;20036;-78
2022/06/19 02:26:44;;;;;;;6.57;0.98;;;15.70;78.20;;;;;;5075180;28;20044;-78
2022/06/19 02:29:12;;;;;;;10.73;1.25;;;15.70;78.10;;;;;;5068862;28;20033;-78
2022/06/19 02:31:42;;;;;;;6.05;1.05;;;15.70;78.20;;;;;;5065013;28;20051;-79
2022/06/19 02:34:37;;;;;;;9.30;1.17;;;15.70;78.30;;;;;;5051978;28;20492;-78
2022/06/19 02:37:12;;;;;;;6.90;1.10;;;15.70;78.80;;;;;;5055616;28;20048;-78
2022/06/19 02:39:46;;;;;;;9.05;0.90;;;15.70;79.30;;;;;;5082037;28;20033;-78
2022/06/19 02:42:28;;;;;;;7.88;1.15;;;15.70;80.00;;;;;;5083834;28;20041;-79
2022/06/19 02:44:57;;;;;;;9.82;1.30;;;15.70;80.70;;;;;;5078313;28;20502;-79
2022/06/19 02:47:30;;;;;;;6.28;0.80;;;15.60;81.20;;;;;;5063497;28;20028;-78
2022/06/19 02:49:56;;;;;;;8.55;0.98;;;15.60;81.50;;;;;;5046246;28;20484;-79
2022/06/19 02:52:23;;;;;;;7.53;1.13;;;15.60;81.70;;;;;;5048656;28;20037;-79
2022/06/19 02:54:50;;;;;;;8.90;1.35;;;15.60;82.00;;;;;;5085440;28;20526;-79
2022/06/19 02:57:17;;;;;;;7.70;0.70;;;15.60;82.10;;;;;;5062960;28;20041;-79
2022/06/19 02:59:44;;;;;;;6.68;0.93;;;15.60;82.00;;;;;;5082752;28;20040;-79
2022/06/19 03:02:14;;;;;;;6.50;0.85;;;15.60;82.00;;;;;;5069018;28;20588;-79
2022/06/19 03:04:54;;;;;;;7.57;0.80;;;15.60;81.90;;;;;;5049013;28;20036;-78
2022/06/19 03:07:20;;;;;;;7.25;1.10;;;15.70;81.90;;;;;;5042248;28;20492;-79
2022/06/19 03:09:47;;;;;;;6.68;0.90;;;15.70;81.90;;;;;;5027680;28;20048;-79
2022/06/19 03:12:13;;;;;;;7.10;1.08;;;15.70;81.90;;;;;;5052388;28;20033;-79
2022/06/19 03:14:40;;;;;;;6.50;0.68;;;15.60;81.80;;;;;;5036578;28;20033;-79
2022/06/19 03:17:06;;;;;;;9.57;0.85;;;15.60;81.90;;;;;;5052438;28;20031;-79
2022/06/19 03:19:34;;;;;;;7.00;0.75;;;15.60;81.90;;;;;;5065264;28;20037;-79
2022/06/19 03:22:01;;;;;;;5.57;0.70;;;15.50;82.00;;;;;;5047198;28;20036;-78
2022/06/19 03:24:28;;;;;;;4.57;0.50;;;15.50;81.80;;;;;;5066033;28;20048;-79
2022/06/19 03:26:55;;;;;;;4.82;0.50;;;15.50;81.80;;;;;;5075434;28;20064;-80
2022/06/19 03:29:21;;;;;;;5.10;0.60;;;15.50;81.60;;;;;;5034487;28;20032;-79
2022/06/19 03:31:48;;;;;;;10.52;1.05;;;15.60;81.30;;;;;;5047476;28;20041;-79
2022/06/19 03:34:14;;;;;;;6.15;0.90;;;15.60;80.80;;;;;;5067241;28;20480;-80
2022/06/19 03:36:41;;;;;;;4.95;0.60;;;15.60;80.60;;;;;;5028074;28;20041;-80
2022/06/19 03:39:07;;;;;;;5.03;0.60;;;15.60;80.60;;;;;;5066605;28;20051;-82
2022/06/19 03:41:33;;;;;;;3.90;0.50;;;15.50;80.60;;;;;;5030304;28;20043;-82
2022/06/19 03:44:00;;;;;;;9.02;0.60;;;15.50;80.80;;;;;;5013194;28;20041;-80
2022/06/19 03:46:26;;;;;;;5.43;0.77;;;15.40;81.00;;;;;;5084885;28;20040;-79
2022/06/19 03:48:53;;;;;;;6.97;0.77;;;15.40;81.70;;;;;;5030760;28;20029;-80
2022/06/19 03:51:23;;;;;;;7.55;0.70;;;15.40;82.10;;;;;;5050172;28;20032;-80
2022/06/19 03:53:52;;;;;;;5.40;1.00;;;15.40;83.00;;;;;;5047702;28;20116;-81
2022/06/19 03:56:28;;;;;;;6.43;0.70;;;15.40;83.30;;;;;;5046382;28;20830;-80
2022/06/19 03:58:54;;;;;;;8.48;1.15;;;15.40;84.20;;;;;;5048602;28;20395;-80
2022/06/19 04:01:27;;;;;;;5.20;0.60;;;15.40;84.70;;;;;;5081839;28;20033;-80
2022/06/19 04:03:55;;;;;;;7.07;0.63;;;15.40;85.30;;;;;;5061001;28;20506;-79
2022/06/19 04:06:25;;;;;;;11.07;0.90;;;15.40;85.40;;;;;;5041855;28;20033;-80
2022/06/19 04:08:52;;;;;;;10.30;1.10;;;15.40;85.60;;;;;;5064294;28;20024;-80
2022/06/19 04:11:20;;;;;;;6.80;0.75;;;15.40;85.60;;;;;;5028786;28;20028;-80
2022/06/19 04:13:47;;;;;;;7.70;0.85;;;15.40;85.80;;;;;;5036607;28;20055;-79
2022/06/19 04:16:16;;;;;;;10.32;1.58;;;15.40;86.20;;;;;;5037816;28;20044;-80
2022/06/19 04:18:42;;;;;;;13.75;2.05;;;15.40;86.70;;;;;;5052208;28;20148;-80
2022/06/19 04:21:19;;;;;;;10.35;1.10;;;15.40;86.80;;;;;;5027892;28;20045;-80
2022/06/19 04:23:45;;;;;;;6.88;0.90;;;15.40;86.90;;;;;;5057338;28;20036;-80
2022/06/19 04:26:15;;;;;;;7.88;0.70;;;15.40;86.80;;;;;;5012949;28;20040;-81
2022/06/19 04:28:42;;;;;;;8.27;1.38;;;15.50;86.90;;;;;;5059364;28;20039;-81
2022/06/19 04:31:09;;;;;;;9.95;0.80;;;15.50;86.90;;;;;;5047401;28;20037;-80
2022/06/19 04:33:38;;;;;;;7.53;0.98;;;15.50;86.80;;;;;;5052586;28;20060;-80
2022/06/19 04:36:09;;;;;;;11.55;1.40;;;15.50;87.20;;;;;;5059717;28;20040;-81
2022/06/19 04:38:37;;;;;;;8.13;0.80;;;15.60;87.10;;;;;;5051351;28;20071;-81
2022/06/19 04:41:04;;;;;;;9.10;1.15;;;15.60;87.00;;;;;;5066203;28;20028;-82
2022/06/19 04:43:33;;;;;;;7.20;0.60;;;15.70;86.70;;;;;;5049088;28;20044;-82
2022/06/19 04:46:05;;;;;;;9.60;1.02;;;15.70;86.10;;;;;;5026748;28;20040;-82
2022/06/19 04:48:32;;;;;;;11.52;1.33;;;15.80;84.80;;;;;;5045911;28;20037;-82
2022/06/19 04:51:00;;;;;;;6.32;0.73;;;15.80;82.70;;;;;;5058855;28;20040;-83
2022/06/19 04:53:27;;;;;;;8.35;0.85;;;15.80;81.90;;;;;;5064307;28;20392;-82
2022/06/19 04:55:54;;;;;;;11.15;1.23;;;15.80;81.90;;;;;;5064451;28;20033;-81
2022/06/19 04:58:24;;;;;;;7.45;0.70;;;15.80;82.10;;;;;;5031299;28;20041;-80
2022/06/19 05:00:52;;;;;;;7.05;0.88;;;15.90;82.00;;;;;;5067654;28;20036;-80
2022/06/19 05:03:20;;;;;;;6.55;0.90;;;15.90;82.10;;;;;;5043000;28;20048;-80
2022/06/19 05:05:47;;;;;;;9.52;1.05;;;16.00;82.10;;;;;;5060579;28;20032;-83
2022/06/19 05:08:13;;;;;;;5.55;0.80;;;16.10;82.00;;;;;;5029133;28;20033;-83
2022/06/19 05:10:41;;;;;;;6.60;0.65;;;16.30;81.70;;;;;;5041159;28;20036;-83
2022/06/19 05:13:21;;;;;;;9.40;1.15;;;16.30;81.60;;;;;;5076358;28;20361;-83
2022/06/19 05:15:49;;;;;;;6.85;0.77;;;16.50;81.20;;;;;;5079347;28;20023;-83
2022/06/19 05:18:17;;;;;;;10.27;0.93;;;16.50;80.90;;;;;;5056752;28;20041;-82
2022/06/19 05:20:43;;;;;;;4.70;0.80;;;16.50;80.60;;;;;;5053879;28;20048;-83
2022/06/19 05:23:10;;;;;;;6.03;0.88;;;16.60;80.70;;;;;;5050826;28;20052;-82
2022/06/19 05:25:37;;;;;;;4.40;0.60;;;16.70;80.60;;;;;;5047501;28;20040;-79
2022/06/19 05:28:04;;;;;;;6.25;0.70;;;16.80;81.10;;;;;;5015529;28;20051;-79
2022/06/19 05:30:30;;;;;;;5.32;0.90;;;17.00;80.20;;;;;;5028845;28;20040;-79
2022/06/19 05:32:57;;;;;;;6.50;0.70;;;17.20;79.50;;;;;;5031760;28;20049;-79
2022/06/19 05:35:23;;;;;;;6.05;0.60;;;17.30;78.70;;;;;;5067383;28;20388;-80
2022/06/19 05:37:50;;;;;;;6.57;2.10;;;17.50;78.60;;;;;;5047015;28;20044;-79
2022/06/19 05:40:16;;;;;;;5.22;1.40;;;17.60;77.60;;;;;;5060781;28;20047;-79
2022/06/19 05:42:43;;;;;;;8.90;2.03;;;17.80;77.30;;;;;;5051219;28;20484;-79
2022/06/19 05:45:10;;;;;;;6.55;1.20;;;17.90;76.80;;;;;;5051899;28;20411;-79
2022/06/19 05:47:36;;;;;;;5.45;0.70;;;18.00;76.60;;;;;;5060643;28;20036;-80
2022/06/19 05:50:03;;;;;;;8.15;0.60;;;18.10;76.00;;;;;;5058817;28;20025;-79
2022/06/19 05:52:29;;;;;;;3.83;0.55;;;18.10;75.80;;;;;;5051816;28;20040;-80
2022/06/19 05:54:56;;;;;;;7.28;0.90;;;18.10;75.80;;;;;;5053403;28;20040;-79
2022/06/19 05:57:22;;;;;;;7.28;1.05;;;18.20;75.90;;;;;;5059239;28;20058;-79
2022/06/19 05:59:49;;;;;;;5.93;0.73;;;18.40;75.50;;;;;;5018379;28;20112;-79
2022/06/19 06:02:22;;;;;;;5.75;0.65;;;18.50;75.20;;;;;;5059371;28;20040;-79
2022/06/19 06:04:49;;;;;;;4.00;0.60;;;18.50;75.00;;;;;;5061704;28;20499;-80
2022/06/19 06:07:16;;;;;;;4.25;0.60;;;18.70;74.80;;;;;;5043358;28;20043;-79
2022/06/19 06:09:42;;;;;;;5.88;0.90;;;18.90;73.40;;;;;;5033434;28;20115;-79
2022/06/19 06:12:09;;;;;;;5.20;0.70;;;19.00;73.10;;;;;;5083120;28;20029;-80
2022/06/19 06:14:35;;;;;;;4.20;0.50;;;19.00;72.60;;;;;;5021550;28;20052;-80
2022/06/19 06:17:02;;;;;;;5.95;0.60;;;19.10;72.30;;;;;;5037858;28;20052;-80
2022/06/19 06:19:31;;;;;;;3.42;0.60;;;19.20;71.90;;;;;;5043151;28;20033;-80
2022/06/19 06:21:59;;;;;;;3.30;0.50;;;19.40;71.00;;;;;;5048868;28;20439;-81
2022/06/19 06:24:26;;;;;;;4.57;0.50;;;19.80;70.40;;;;;;5062301;28;20037;-81
2022/06/19 06:26:52;;;;;;;3.53;0.40;;;20.10;68.80;;;;;;5036077;28;20609;-81
2022/06/19 06:29:20;;;;;;;3.13;0.50;;;20.20;67.50;;;;;;5070669;28;20432;-80
2022/06/19 06:31:47;;;;;;;2.67;0.60;;;20.10;67.50;;;;;;5049571;28;20017;-80
2022/06/19 06:34:13;;;;;;;6.70;0.60;;;20.00;66.90;;;;;;5066054;28;20487;-80
2022/06/19 06:36:40;;;;;;;3.67;0.70;;;19.70;66.10;;;;;;5081725;28;20492;-80
2022/06/19 06:39:06;;;;;;;3.72;0.73;;;19.50;66.10;;;;;;5048077;28;20040;-80
2022/06/19 06:41:33;;;;;;;3.30;0.70;;;19.50;66.50;;;;;;5014722;28;20433;-80
2022/06/19 06:43:59;;;;;;;2.88;0.50;;;19.30;66.60;;;;;;5067052;28;20036;-79
2022/06/19 06:46:27;;;;;;;2.72;0.43;;;19.20;66.50;;;;;;5062017;28;20396;-79
2022/06/19 06:48:59;;;;;;;3.78;0.52;;;19.10;66.80;;;;;;5037471;28;20122;-79
2022/06/19 06:51:27;;;;;;;2.95;0.50;;;19.00;67.20;;;;;;5049259;28;20036;-77
2022/06/19 06:53:54;;;;;;;2.63;0.60;;;18.80;67.70;;;;;;5074410;28;20045;-81
2022/06/19 06:56:21;;;;;;;4.00;1.45;;;18.80;68.20;;;;;;5036847;28;20130;-80
2022/06/19 06:58:48;;;;;;;6.32;1.63;;;18.80;69.10;;;;;;5045588;28;20032;-79
2022/06/19 07:01:18;;;;;;;4.95;1.05;;;18.70;70.30;;;;;;5047157;28;20043;-78
2022/06/19 07:03:46;;;;;;;4.72;0.68;;;18.50;71.40;;;;;;5063174;28;20387;-80
2022/06/19 07:06:12;;;;;;;3.83;0.50;;;18.30;72.60;;;;;;5063461;28;20037;-80
2022/06/19 07:08:42;;;;;;;3.40;0.57;;;18.20;75.20;;;;;;5028177;28;20436;-81
2022/06/19 07:11:16;;;;;;;3.75;0.70;;;18.00;76.40;;;;;;5043961;28;20435;-80
2022/06/19 07:13:43;;;;;;;5.15;0.82;;;17.50;78.10;;;;;;5047662;28;20396;-81
2022/06/19 07:16:09;;;;;;;4.60;0.82;;;17.10;81.00;;;;;;5066621;28;20044;-80
2022/06/19 07:18:36;;;;;;;4.40;0.80;;;16.80;82.60;;;;;;5048727;28;20036;-78
2022/06/19 07:21:03;;;;;;;5.88;0.55;;;16.60;84.90;;;;;;5064384;28;20052;-77
2022/06/19 07:23:29;;;;;;;6.88;0.57;;;16.50;85.90;;;;;;5084084;28;20427;-79
2022/06/19 07:25:55;;;;;;;4.03;0.60;;;16.40;86.80;;;;;;5065376;28;20396;-80
2022/06/19 07:28:22;;;;;;;9.32;1.20;;;16.20;88.00;;;;;;5028406;28;20029;-80
2022/06/19 07:30:48;;;;;;;6.95;0.93;;;16.20;88.70;;;;;;5022720;28;20037;-81
2022/06/19 07:33:15;;;;;;;7.90;1.00;;;16.20;89.90;;;;;;5061306;28;20123;-80
2022/06/19 07:35:46;;;;;;;9.85;0.80;;;16.10;90.20;;;;;;5020287;28;20069;-79
2022/06/19 07:38:12;;;;;;;6.53;0.70;;;16.00;90.80;;;;;;5065261;28;20037;-79
2022/06/19 07:40:39;;;;;;;6.18;0.70;;;15.90;91.40;;;;;;5052998;28;20384;-78
2022/06/19 07:43:05;;;;;;;10.63;0.70;;;15.70;91.80;;;;;;5045990;28;20037;-77
2022/06/19 07:45:32;;;;;;;9.75;0.80;;;15.70;92.60;;;;;;5065370;28;20098;-78
2022/06/19 07:50:43;;;;;;;10.02;1.08;;;15.70;93.70;;;;;;5037665;28;20040;-77
2022/06/19 07:53:09;;;;;;;9.90;1.15;;;15.60;94.20;;;;;;5046061;28;20051;-78
2022/06/19 07:55:39;;;;;;;7.28;1.55;;;15.60;94.70;;;;;;5061742;28;20029;-81
2022/06/19 07:58:15;;;;;;;8.55;1.08;;;15.50;95.30;;;;;;5074390;28;20494;-79
2022/06/19 08:00:43;;;;;;;7.82;1.10;;;15.50;95.90;;;;;;5034591;28;20035;-81
2022/06/19 08:03:09;;;;;;;6.65;0.80;;;15.50;96.30;;;;;;5032934;28;20044;-77
2022/06/19 08:05:37;;;;;;;4.82;0.90;;;15.60;96.80;;;;;;5068420;28;20044;-80
2022/06/19 08:08:09;;;;;;;9.05;0.95;;;15.50;97.40;;;;;;5058442;28;20024;-78
2022/06/19 08:10:39;;;;;;;7.83;0.93;;;15.50;98.10;;;;;;5065014;28;20032;-80
2022/06/19 08:13:07;;;;;;;8.55;1.67;;;15.40;98.70;;;;;;5060436;28;20275;-80
2022/06/19 08:15:34;;;;;;;6.78;1.27;;;15.30;99.60;;;;;;5063451;28;20040;-80
2022/06/19 08:18:01;;;;;;;10.70;3.63;;;15.20;99.90;;;;;;5058957;28;20492;-83
2022/06/19 08:20:29;;;;;;;13.45;2.67;;;15.00;99.90;;;;;;5082160;28;20033;-83
2022/06/19 08:22:56;;;;;;;7.78;0.90;;;14.90;99.90;;;;;;5067632;28;20035;-83
2022/06/19 08:25:29;;;;;;;8.35;1.17;;;14.90;99.90;;;;;;5062035;28;20048;-81
2022/06/19 08:27:56;;;;;;;9.52;1.05;;;14.80;99.90;;;;;;5059858;28;20045;-83
2022/06/19 08:30:27;;;;;;;6.22;0.85;;;14.80;99.90;;;;;;5061478;28;20049;-81
2022/06/19 08:32:54;;;;;;;13.80;3.13;;;14.80;99.90;;;;;;5056127;28;20049;-82
2022/06/19 08:35:21;;;;;;;10.95;1.90;;;14.80;99.90;;;;;;5064023;28;20032;-82
2022/06/19 08:37:53;;;;;;;8.60;1.63;;;14.80;99.90;;;;;;5037375;28;20071;-82
2022/06/19 08:40:59;;;;;;;12.77;2.20;;;14.70;99.90;;;;;;5072219;28;20044;-82
2022/06/19 08:43:31;;;;;;;11.73;1.65;;;14.70;99.90;;;;;;5009258;28;20041;-82
2022/06/19 08:46:33;;;;;;;8.32;1.35;;;14.70;99.90;;;;;;5056067;28;20032;-82
2022/06/19 08:49:20;;;;;;;9.98;1.27;;;14.80;99.90;;;;;;5063294;28;20029;-83
2022/06/19 08:52:15;;;;;;;8.32;1.00;;;14.90;99.90;;;;;;5061017;28;20039;-82
2022/06/19 08:54:52;;;;;;;10.32;1.10;;;14.90;99.90;;;;;;5048415;28;20031;-81
2022/06/19 08:57:32;;;;;;;9.45;1.05;;;14.90;99.90;;;;;;5051601;28;20033;-80
2022/06/19 09:00:25;;;;;;;11.23;1.70;;;14.90;99.90;;;;;;5046701;28;20037;-80
2022/06/19 09:03:22;;;;;;;8.20;1.23;;;14.80;99.90;;;;;;5065956;28;20021;-81
2022/06/19 09:06:13;;;;;;;12.52;4.03;;;14.80;99.90;;;;;;5046955;28;20033;-80
2022/06/19 09:08:49;;;;;;;11.60;2.80;;;14.70;99.90;;;;;;5072563;28;20471;-81
2022/06/19 09:11:26;;;;;;;15.02;3.88;;;14.80;99.90;;;;;;5055473;28;20040;-80
2022/06/19 09:14:17;;;;;;;13.27;3.92;;;14.90;99.90;;;;;;5073945;28;20519;-82
2022/06/19 09:17:11;;;;;;;8.30;1.52;;;15.00;99.90;;;;;;5058286;28;20475;-81
2022/06/19 09:19:55;;;;;;;11.88;1.35;;;15.10;99.90;;;;;;5068331;28;20045;-82
2022/06/19 09:22:59;;;;;;;9.07;1.10;;;15.20;99.90;;;;;;5063420;28;20044;-81
2022/06/19 09:25:34;;;;;;;9.02;1.05;;;15.50;99.90;;;;;;5072624;28;20044;-82
2022/06/19 09:28:00;;;;;;;7.82;1.05;;;15.80;99.90;;;;;;5040337;28;20040;-81
2022/06/19 09:30:33;;;;;;;10.45;1.30;;;16.00;99.90;;;;;;5061631;28;20480;-82
2022/06/19 09:33:06;;;;;;;5.95;0.98;;;16.30;99.90;;;;;;5069928;28;20037;-82
2022/06/19 09:35:37;;;;;;;10.18;1.20;;;16.70;99.90;;;;;;5067968;28;20029;-82
2022/06/19 09:38:07;;;;;;;11.95;1.55;;;16.90;99.90;;;;;;5065928;28;20432;-80
2022/06/19 09:40:37;;;;;;;9.32;1.38;;;17.00;99.90;;;;;;5060458;28;20045;-82
2022/06/19 09:43:24;;;;;;;10.98;1.15;;;17.00;99.90;;;;;;5060341;28;20029;-81
2022/06/19 09:46:06;;;;;;;5.72;0.95;;;17.10;99.90;;;;;;5060666;28;20040;-81
2022/06/19 09:48:40;;;;;;;7.20;1.13;;;17.40;99.90;;;;;;5082614;28;20037;-81
2022/06/19 09:51:13;;;;;;;5.95;0.77;;;17.60;99.90;;;;;;5044651;28;20104;-80
2022/06/19 09:53:43;;;;;;;;;;;17.80;99.90;;;;;;5053778;28;20033;-81
2022/06/19 09:56:29;;;;;;;4.82;0.70;;;17.90;99.90;;;;;;5054365;28;19909;-82
2022/06/19 09:59:11;;;;;;;8.18;1.00;;;18.20;99.90;;;;;;5074976;28;20028;-81
2022/06/19 10:01:42;;;;;;;6.78;0.60;;;18.30;99.90;;;;;;5052960;28;20021;-82
2022/06/19 10:04:22;;;;;;;3.22;0.50;;;18.60;99.90;;;;;;5043592;28;20037;-82
2022/06/19 10:06:54;;;;;;;3.67;0.63;;;18.80;99.90;;;;;;5048361;28;20045;-77
2022/06/19 10:09:47;;;;;;;4.95;0.50;;;19.10;99.90;;;;;;5059444;28;20111;-79
2022/06/19 10:12:29;;;;;;;5.28;0.70;;;19.40;99.90;;;;;;5084375;28;20036;-77
2022/06/19 10:15:01;;;;;;;4.45;0.52;;;19.50;99.90;;;;;;5051617;28;20039;-80
2022/06/19 10:17:31;;;;;;;4.03;0.60;;;19.70;99.90;;;;;;5058748;28;20048;-78
2022/06/19 10:20:15;;;;;;;3.97;0.60;;;19.80;99.70;;;;;;5074848;28;20475;-77
2022/06/19 10:22:49;;;;;;;2.95;0.50;;;20.10;99.50;;;;;;5061641;28;20040;-77
2022/06/19 10:25:28;;;;;;;7.07;1.40;;;20.20;97.90;;;;;;5064552;28;20037;-76
2022/06/19 10:28:22;;;;;;;4.85;0.82;;;20.50;97.70;;;;;;5064048;28;20039;-78
2022/06/19 10:31:26;;;;;;;4.20;0.90;;;20.60;96.40;;;;;;5072530;28;20085;-78
2022/06/19 10:34:20;;;;;;;4.90;0.50;;;20.30;95.50;;;;;;5063267;28;20048;-79
2022/06/19 10:37:16;;;;;;;6.65;0.70;;;20.20;95.70;;;;;;5067214;28;20375;-80
2022/06/19 10:39:55;;;;;;;6.63;0.88;;;20.20;95.60;;;;;;5062156;28;20368;-80
2022/06/19 10:42:41;;;;;;;9.23;2.95;;;20.30;95.80;;;;;;5039918;28;20040;-80
2022/06/19 10:45:21;;;;;;;9.05;4.95;;;20.50;95.50;;;;;;5067191;28;20041;-76
2022/06/19 10:48:06;;;;;;;4.13;1.30;;;20.60;95.20;;;;;;5049414;28;20044;-79
2022/06/19 10:51:06;;;;;;;5.55;1.20;;;20.90;95.60;;;;;;5075513;28;20093;-80
2022/06/19 10:53:51;;;;;;;5.70;1.05;;;21.40;95.00;;;;;;5062638;28;20042;-80
2022/06/19 10:56:43;;;;;;;5.55;0.82;;;21.60;94.70;;;;;;5069598;28;20055;-81
2022/06/19 10:59:09;;;;;;;4.03;1.03;;;21.90;94.30;;;;;;5056820;28;20100;-83
2022/06/19 11:04:37;;;;;;;5.50;0.90;;;22.40;93.90;;;;;;5068587;28;20066;-80
2022/06/19 11:07:12;;;;;;;3.88;0.70;;;22.80;93.80;;;;;;5043855;28;20917;-83
2022/06/19 11:09:47;;;;;;;5.47;1.15;;;23.20;92.50;;;;;;5069163;28;20021;-80
2022/06/19 11:12:39;;;;;;;7.90;1.27;;;23.20;92.10;;;;;;5066419;28;20055;-80
2022/06/19 11:15:26;;;;;;;5.28;1.00;;;23.40;92.20;;;;;;5080946;28;20036;-80
2022/06/19 11:18:15;;;;;;;6.18;1.50;;;23.50;91.40;;;;;;5083603;28;20048;-80
2022/06/19 11:21:03;;;;;;;6.93;1.00;;;23.50;90.10;;;;;;5047331;28;20033;-82
2022/06/19 11:23:38;;;;;;;4.97;0.90;;;23.20;90.20;;;;;;5068717;28;20043;-81
2022/06/19 11:26:07;;;;;;;4.97;1.00;;;23.20;90.90;;;;;;5062788;28;20043;-79
2022/06/19 11:28:51;;;;;;;6.53;0.82;;;23.20;90.80;;;;;;5054354;28;20037;-79
2022/06/19 11:31:31;;;;;;;6.47;1.45;;;23.20;91.00;;;;;;5037901;28;20351;-79
2022/06/19 11:37:26;;;;;;;6.22;1.10;;;23.80;90.40;;;;;;5078922;28;20043;-82
2022/06/19 11:39:58;;;;;;;9.90;2.58;;;24.40;90.10;;;;;;5033106;28;20388;-80
2022/06/19 11:42:45;;;;;;;7.15;1.60;;;24.60;88.90;;;;;;5066498;28;20032;-80
2022/06/19 11:45:15;;;;;;;6.13;0.95;;;24.60;87.90;;;;;;5066025;28;20047;-80
2022/06/19 11:47:59;;;;;;;7.53;1.35;;;24.50;86.90;;;;;;5060077;28;20031;-81
2022/06/19 11:50:36;;;;;;;7.00;1.48;;;24.40;87.30;;;;;;5072746;28;20033;-78
2022/06/19 11:53:05;;;;;;;2.72;0.60;;;24.40;85.90;;;;;;5067136;28;20052;-78
2022/06/19 11:55:36;;;;;;;5.60;0.93;;;24.20;86.50;;;;;;5086488;28;20056;-81
2022/06/19 11:58:20;;;;;;;5.05;1.15;;;23.90;87.00;;;;;;5029304;28;20391;-79
2022/06/19 12:01:09;;;;;;;4.45;1.10;;;24.10;86.60;;;;;;5059485;28;20044;-79
2022/06/19 12:03:58;;;;;;;6.05;1.33;;;24.60;86.80;;;;;;5068113;28;20051;-79
2022/06/19 12:06:48;;;;;;;6.05;0.93;;;24.80;85.20;;;;;;5035175;28;20515;-79
2022/06/19 12:09:28;;;;;;;3.72;0.68;;;24.80;85.10;;;;;;5073142;28;20029;-80
2022/06/19 12:12:00;;;;;;;2.65;0.40;;;24.80;83.00;;;;;;5043062;28;20040;-79
2022/06/19 12:14:30;;;;;;;2.83;0.60;;;25.00;83.40;;;;;;5073920;28;20029;-79
2022/06/19 12:17:26;;;;;;;4.03;0.73;;;25.10;82.90;;;;;;5066901;28;20032;-80
2022/06/19 12:20:07;;;;;;;1.92;0.40;;;25.10;82.50;;;;;;5053895;28;20044;-79
2022/06/19 12:22:51;;;;;;;5.57;0.88;;;24.80;83.10;;;;;;5073981;28;20040;-80
2022/06/19 12:25:32;;;;;;;6.25;1.05;;;24.40;84.20;;;;;;5069942;28;20456;-79
2022/06/19 12:28:31;;;;;;;7.10;0.70;;;23.70;85.20;;;;;;5035890;28;20032;-81
2022/06/19 12:31:03;;;;;;;5.55;0.98;;;23.10;86.60;;;;;;5065702;28;20049;-80
2022/06/19 12:33:35;;;;;;;6.47;0.98;;;22.60;88.10;;;;;;5057033;28;20045;-79
2022/06/19 12:36:01;;;;;;;7.93;1.92;;;22.20;89.90;;;;;;5059158;28;20039;-78
2022/06/19 12:38:34;;;;;;;10.82;2.75;;;21.90;90.20;;;;;;5069766;28;20033;-79
2022/06/19 12:41:52;;;;;;;7.43;1.23;;;21.50;90.60;;;;;;5045329;28;20552;-78
2022/06/19 12:44:43;;;;;;;4.35;0.93;;;21.20;91.00;;;;;;5045958;28;20044;-79
2022/06/19 12:47:13;;;;;;;5.40;0.80;;;21.00;91.40;;;;;;5038008;28;20028;-79
2022/06/19 12:49:54;;;;;;;8.38;1.45;;;21.00;91.80;;;;;;5053800;28;20102;-79
2022/06/19 12:52:31;;;;;;;7.05;3.10;;;21.00;91.80;;;;;;5060792;28;20037;-79
2022/06/19 12:55:09;;;;;;;6.78;3.08;;;21.00;92.00;;;;;;5074097;28;20123;-79
2022/06/19 12:57:48;;;;;;;3.75;1.20;;;21.60;92.00;;;;;;5050610;28;20385;-78
2022/06/19 13:00:37;;;;;;;4.90;0.90;;;22.40;91.00;;;;;;5061614;28;20037;-78
2022/06/19 13:03:24;;;;;;;7.90;2.72;;;22.40;90.50;;;;;;5068245;28;20028;-78
2022/06/19 13:06:12;;;;;;;6.95;2.10;;;22.50;90.50;;;;;;5066128;28;20044;-77
2022/06/19 13:08:54;;;;;;;4.82;0.80;;;22.60;89.90;;;;;;5063407;28;20360;-79
2022/06/19 13:11:21;;;;;;;4.47;0.82;;;22.70;90.00;;;;;;5059057;28;20067;-80
2022/06/19 13:14:21;;;;;;;6.30;1.20;;;22.90;89.90;;;;;;5076294;28;20041;-79
2022/06/19 13:17:29;;;;;;;5.20;0.85;;;22.80;89.80;;;;;;5061867;28;20037;-80
2022/06/19 13:20:16;;;;;;;7.63;1.05;;;22.50;89.50;;;;;;5055378;28;20040;-80
2022/06/19 13:23:12;;;;;;;5.55;0.75;;;22.10;90.10;;;;;;5062205;28;20032;-80
2022/06/19 13:25:45;;;;;;;6.53;0.85;;;21.90;90.80;;;;;;5064692;28;20032;-82
2022/06/19 13:28:26;;;;;;;3.78;0.63;;;21.80;91.20;;;;;;5068103;28;20059;-82